Time;durP1;ratioP1;P1;durP2;ratioP2;P2;SDS_P1;SDS_P2;PMS_P1;PMS_P2;Temp;Humidity;BMP_temperature;BMP_pressure;BME280_temperature;BME280_humidity;BME280_pressure;Samples;Min_cycle;Max_cycle;Signal;HPM_P1;HPM_P2
2021/09/01 00:00:54;;;;;;;11.93;10.70;;;14.90;99.90;;;;;;5013798;28;20221;-61
2021/09/01 00:03:20;;;;;;;10.63;9.63;;;14.90;99.90;;;;;;5014104;28;20468;-61
2021/09/01 00:05:45;;;;;;;12.37;10.27;;;14.90;99.90;;;;;;5014069;28;20171;-58
2021/09/01 00:08:11;;;;;;;12.83;11.63;;;15.00;99.90;;;;;;5014364;28;20197;-60
2021/09/01 00:10:37;;;;;;;12.03;10.77;;;15.00;99.90;;;;;;5013998;28;20634;-60
2021/09/01 00:13:03;;;;;;;11.40;10.33;;;15.00;99.90;;;;;;5013662;28;20172;-58
2021/09/01 00:15:32;;;;;;;10.67;9.57;;;15.00;99.90;;;;;;5013664;28;20180;-62
2021/09/01 00:17:58;;;;;;;13.03;10.10;;;15.00;99.90;;;;;;5013631;28;20498;-59
2021/09/01 00:20:25;;;;;;;12.83;10.70;;;15.00;99.90;;;;;;5014346;28;20931;-59
2021/09/01 00:22:51;;;;;;;11.00;10.00;;;15.00;99.90;;;;;;5014069;28;20177;-61
2021/09/01 00:25:17;;;;;;;12.60;11.30;;;15.00;99.90;;;;;;4996326;28;20475;-61
2021/09/01 00:27:43;;;;;;;10.73;9.67;;;15.00;99.90;;;;;;5014279;28;20539;-60
2021/09/01 00:30:09;;;;;;;10.00;9.00;;;14.90;99.90;;;;;;5013549;28;20700;-61
2021/09/01 00:32:34;;;;;;;11.73;10.53;;;14.90;99.90;;;;;;5013522;28;20296;-61
2021/09/01 00:35:00;;;;;;;12.53;11.00;;;14.90;99.90;;;;;;5013594;28;20900;-61
2021/09/01 00:37:26;;;;;;;12.80;11.53;;;14.90;99.90;;;;;;5013825;28;20697;-61
2021/09/01 00:39:51;;;;;;;13.00;11.70;;;14.80;99.90;;;;;;5013784;28;20203;-61
2021/09/01 00:42:17;;;;;;;12.90;10.80;;;14.70;99.90;;;;;;5013738;28;20174;-61
2021/09/01 00:44:42;;;;;;;16.40;12.10;;;14.70;99.90;;;;;;5012893;28;20705;-61
2021/09/01 00:47:08;;;;;;;12.53;11.33;;;14.70;99.90;;;;;;5013555;28;20308;-61
2021/09/01 00:49:34;;;;;;;11.93;10.73;;;14.70;99.90;;;;;;5013641;28;20308;-61
2021/09/01 00:52:01;;;;;;;13.13;11.00;;;14.70;99.90;;;;;;5013884;28;20595;-59
2021/09/01 00:54:30;;;;;;;11.60;10.40;;;14.70;99.90;;;;;;5013694;28;20519;-60
2021/09/01 00:57:00;;;;;;;12.10;10.80;;;14.70;99.90;;;;;;5013282;28;20543;-60
2021/09/01 00:59:27;;;;;;;14.27;12.77;;;14.80;99.90;;;;;;5013364;28;20402;-60
2021/09/01 01:01:54;;;;;;;13.40;12.13;;;14.70;99.90;;;;;;5013794;28;20415;-58
2021/09/01 01:04:24;;;;;;;12.33;11.23;;;14.70;99.90;;;;;;5013499;28;20435;-59
2021/09/01 01:06:50;;;;;;;13.73;12.40;;;14.60;99.90;;;;;;5013314;28;20412;-60
2021/09/01 01:09:15;;;;;;;13.80;12.40;;;14.60;99.90;;;;;;5013551;28;20769;-60
2021/09/01 01:12:00;;;;;;;15.03;13.53;;;14.60;99.90;;;;;;5013154;28;20200;-60
2021/09/01 01:14:26;;;;;;;12.53;11.20;;;14.60;99.90;;;;;;5013048;28;20272;-59
2021/09/01 01:16:53;;;;;;;14.13;11.70;;;14.60;99.90;;;;;;5013121;28;20464;-61
2021/09/01 01:19:20;;;;;;;12.47;11.17;;;14.60;99.90;;;;;;5013188;28;20413;-59
2021/09/01 01:21:46;;;;;;;14.20;12.40;;;14.60;99.90;;;;;;5013361;28;20405;-57
2021/09/01 01:24:12;;;;;;;15.53;13.30;;;14.60;99.90;;;;;;5013318;28;20856;-60
2021/09/01 01:26:37;;;;;;;11.40;10.30;;;14.50;99.90;;;;;;5016354;28;20453;-60
2021/09/01 01:29:08;;;;;;;12.37;11.07;;;14.50;99.90;;;;;;5016058;28;20200;-61
2021/09/01 01:31:37;;;;;;;14.20;12.70;;;14.50;99.90;;;;;;5031692;28;20183;-60
2021/09/01 01:34:03;;;;;;;17.33;15.47;;;14.50;99.90;;;;;;5036752;28;20421;-61
2021/09/01 01:36:28;;;;;;;14.63;13.13;;;14.50;99.90;;;;;;5037205;28;20909;-60
2021/09/01 01:38:55;;;;;;;12.83;11.53;;;14.50;99.90;;;;;;5036726;28;20599;-55
2021/09/01 01:41:21;;;;;;;14.67;13.13;;;14.50;99.90;;;;;;5036794;28;20194;-55
2021/09/01 01:43:48;;;;;;;14.93;12.67;;;14.50;99.90;;;;;;5031029;28;20463;-58
2021/09/01 01:46:14;;;;;;;15.63;13.53;;;14.60;99.90;;;;;;5034936;23;20490;-57
2021/09/01 01:48:40;;;;;;;15.27;12.70;;;14.60;99.90;;;;;;5027546;28;20545;-57
2021/09/01 01:51:06;;;;;;;16.67;14.50;;;14.60;99.90;;;;;;5036279;28;20478;-57
2021/09/01 01:53:31;;;;;;;16.07;13.53;;;14.50;99.90;;;;;;5036869;28;20818;-57
2021/09/01 01:55:57;;;;;;;15.53;13.90;;;14.60;99.90;;;;;;5036434;28;20184;-58
2021/09/01 01:58:23;;;;;;;15.17;13.57;;;14.60;99.90;;;;;;5036108;28;20319;-58
2021/09/01 02:00:49;;;;;;;13.70;12.40;;;14.60;99.90;;;;;;5036147;28;20920;-58
2021/09/01 02:03:16;;;;;;;12.03;10.80;;;14.70;99.90;;;;;;5036008;28;20261;-58
2021/09/01 02:05:41;;;;;;;14.27;11.90;;;14.70;99.90;;;;;;5036314;28;20395;-57
2021/09/01 02:08:07;;;;;;;13.83;11.60;;;14.70;99.90;;;;;;5036330;28;20460;-58
2021/09/01 02:10:33;;;;;;;14.20;12.70;;;14.60;99.90;;;;;;5035917;28;20166;-58
2021/09/01 02:12:59;;;;;;;15.70;13.20;;;14.60;99.90;;;;;;5035929;28;20181;-57
2021/09/01 02:15:25;;;;;;;14.00;12.33;;;14.60;99.90;;;;;;5035972;28;20659;-57
2021/09/01 02:17:50;;;;;;;16.13;14.03;;;14.70;99.90;;;;;;5035503;28;20539;-56
2021/09/01 02:20:16;;;;;;;14.43;11.70;;;14.60;99.90;;;;;;5035871;28;20660;-57
2021/09/01 02:22:42;;;;;;;15.50;13.40;;;14.60;99.90;;;;;;5035935;28;20167;-57
2021/09/01 02:25:10;;;;;;;14.70;13.23;;;14.50;99.90;;;;;;5036111;28;20418;-58
2021/09/01 02:27:36;;;;;;;17.80;15.50;;;14.50;99.90;;;;;;5035933;28;20468;-57
2021/09/01 02:30:03;;;;;;;15.67;12.70;;;14.50;99.90;;;;;;5035868;28;20832;-58
2021/09/01 02:32:28;;;;;;;14.90;12.90;;;14.50;99.90;;;;;;5035501;28;20544;-58
2021/09/01 02:34:55;;;;;;;14.33;11.97;;;14.40;99.90;;;;;;5035819;28;20881;-49
2021/09/01 02:37:20;;;;;;;15.20;13.77;;;14.20;99.90;;;;;;5034925;28;20224;-49
2021/09/01 02:39:46;;;;;;;15.53;13.30;;;14.10;99.90;;;;;;5035699;28;20410;-57
2021/09/01 02:42:11;;;;;;;14.57;13.00;;;14.20;99.90;;;;;;5035406;28;20208;-57
2021/09/01 02:44:37;;;;;;;15.17;13.57;;;14.20;99.90;;;;;;5032710;28;20168;-56
2021/09/01 02:47:03;;;;;;;14.17;11.93;;;14.20;99.90;;;;;;5026876;28;20593;-56
2021/09/01 02:49:28;;;;;;;14.63;13.07;;;14.20;99.90;;;;;;5035239;28;20176;-57
2021/09/01 02:51:54;;;;;;;17.40;14.67;;;14.20;99.90;;;;;;5035474;28;20247;-58
2021/09/01 02:54:20;;;;;;;16.97;15.17;;;14.20;99.90;;;;;;5035148;28;20626;-49
2021/09/01 02:56:46;;;;;;;15.83;14.13;;;14.10;99.90;;;;;;5034974;28;20184;-50
2021/09/01 02:59:11;;;;;;;16.73;13.30;;;14.10;99.90;;;;;;5035065;28;20695;-51
2021/09/01 03:01:37;;;;;;;18.97;16.20;;;14.20;99.90;;;;;;5035123;28;20411;-52
2021/09/01 03:04:03;;;;;;;17.93;14.97;;;14.10;99.90;;;;;;5034894;28;20178;-58
2021/09/01 03:06:29;;;;;;;16.80;14.23;;;14.10;99.90;;;;;;5034954;28;20188;-57
2021/09/01 03:08:54;;;;;;;15.67;13.83;;;14.10;99.90;;;;;;5035559;28;20175;-56
2021/09/01 03:11:20;;;;;;;18.17;15.47;;;14.10;99.90;;;;;;5034947;28;20179;-57
2021/09/01 03:13:46;;;;;;;15.67;12.77;;;14.10;99.90;;;;;;5035574;28;20791;-52
2021/09/01 03:16:11;;;;;;;15.83;12.90;;;14.10;99.90;;;;;;5034912;28;20189;-51
2021/09/01 03:18:37;;;;;;;16.57;14.47;;;14.10;99.90;;;;;;5035203;28;20188;-51
2021/09/01 03:21:02;;;;;;;18.03;16.17;;;14.00;99.90;;;;;;5036332;28;20171;-51
2021/09/01 03:23:28;;;;;;;16.33;14.07;;;14.00;99.90;;;;;;5035053;28;20632;-56
2021/09/01 03:25:53;;;;;;;17.67;15.53;;;14.00;99.90;;;;;;5035026;28;20287;-57
2021/09/01 03:28:19;;;;;;;16.40;14.27;;;14.00;99.90;;;;;;5034934;28;20211;-56
2021/09/01 03:30:45;;;;;;;17.40;13.00;;;14.00;99.90;;;;;;5035148;28;20179;-53
2021/09/01 03:33:10;;;;;;;14.87;13.27;;;14.00;99.90;;;;;;5034990;28;20171;-57
2021/09/01 03:35:36;;;;;;;16.97;14.40;;;14.00;99.90;;;;;;5034699;28;20539;-50
2021/09/01 03:38:01;;;;;;;15.90;14.20;;;14.00;99.90;;;;;;5034278;28;20198;-49
2021/09/01 03:40:27;;;;;;;16.77;14.97;;;13.90;99.90;;;;;;5034322;28;20159;-49
2021/09/01 03:42:53;;;;;;;16.37;13.70;;;13.90;99.90;;;;;;5034821;28;20170;-57
2021/09/01 03:45:18;;;;;;;15.67;14.00;;;13.90;99.90;;;;;;5034757;28;20586;-50
2021/09/01 03:47:44;;;;;;;14.03;12.00;;;13.90;99.90;;;;;;5032825;28;20219;-51
2021/09/01 03:50:11;;;;;;;16.07;14.37;;;13.90;99.90;;;;;;5034325;28;20196;-50
2021/09/01 03:52:37;;;;;;;18.27;15.80;;;13.80;99.90;;;;;;5034323;28;20180;-50
2021/09/01 03:55:08;;;;;;;18.10;14.97;;;13.80;99.90;;;;;;5034664;28;20405;-52
2021/09/01 03:57:33;;;;;;;21.37;16.87;;;13.80;99.90;;;;;;5033893;28;20825;-50
2021/09/01 03:59:59;;;;;;;17.87;15.40;;;13.80;99.90;;;;;;5033951;28;20411;-50
2021/09/01 04:02:25;;;;;;;16.97;14.20;;;13.80;99.90;;;;;;5033439;28;20168;-50
2021/09/01 04:04:51;;;;;;;16.80;13.13;;;13.80;99.90;;;;;;5034076;28;20179;-49
2021/09/01 04:07:16;;;;;;;18.03;15.50;;;13.80;99.90;;;;;;5033998;28;20863;-51
2021/09/01 04:09:42;;;;;;;15.57;13.10;;;13.70;99.90;;;;;;5033739;28;20524;-57
2021/09/01 04:12:08;;;;;;;15.70;13.60;;;13.70;99.90;;;;;;5033692;28;20168;-57
2021/09/01 04:14:33;;;;;;;17.00;14.80;;;13.70;99.90;;;;;;5033614;28;20659;-50
2021/09/01 04:16:59;;;;;;;16.73;13.67;;;13.70;99.90;;;;;;5033273;28;20223;-49
2021/09/01 04:19:24;;;;;;;17.13;15.10;;;13.70;99.90;;;;;;5033365;28;20186;-52
2021/09/01 04:21:50;;;;;;;15.40;13.37;;;13.60;99.90;;;;;;5033836;28;20220;-49
2021/09/01 04:24:16;;;;;;;14.60;13.10;;;13.60;99.90;;;;;;5033471;28;20159;-55
2021/09/01 04:26:41;;;;;;;17.70;14.97;;;13.60;99.90;;;;;;5033357;28;20657;-55
2021/09/01 04:29:07;;;;;;;19.33;16.20;;;13.60;99.90;;;;;;5033582;28;20176;-56
2021/09/01 04:31:33;;;;;;;17.23;14.27;;;13.60;99.90;;;;;;5033296;28;20174;-57
2021/09/01 04:33:58;;;;;;;15.40;13.80;;;13.60;99.90;;;;;;5033046;28;20168;-53
2021/09/01 04:36:24;;;;;;;15.00;13.40;;;13.60;99.90;;;;;;5033655;28;20195;-51
2021/09/01 04:38:49;;;;;;;16.30;14.60;;;13.60;99.90;;;;;;5031215;28;20668;-50
2021/09/01 04:41:15;;;;;;;15.90;12.50;;;13.60;99.90;;;;;;5021057;28;20182;-50
2021/09/01 04:43:41;;;;;;;18.10;14.57;;;13.60;99.90;;;;;;5033418;28;20202;-51
2021/09/01 04:46:06;;;;;;;15.93;13.60;;;13.50;99.90;;;;;;5033254;28;20215;-55
2021/09/01 04:48:32;;;;;;;19.43;17.43;;;13.50;99.90;;;;;;5033128;28;20160;-56
2021/09/01 04:50:57;;;;;;;18.90;16.80;;;13.50;99.90;;;;;;5033125;28;20630;-56
2021/09/01 04:53:23;;;;;;;17.10;14.60;;;13.60;99.90;;;;;;5033078;28;20170;-52
2021/09/01 04:55:49;;;;;;;17.27;15.47;;;13.60;99.90;;;;;;5032972;28;20167;-50
2021/09/01 04:58:15;;;;;;;15.50;14.00;;;13.60;99.90;;;;;;5033139;28;20648;-57
2021/09/01 05:00:41;;;;;;;16.23;13.90;;;13.60;99.90;;;;;;5038709;28;20405;-55
2021/09/01 05:03:06;;;;;;;16.83;13.63;;;13.60;99.90;;;;;;5039227;28;20457;-57
2021/09/01 05:05:32;;;;;;;14.67;13.17;;;13.70;99.90;;;;;;5039521;28;20495;-55
2021/09/01 05:07:57;;;;;;;14.80;13.40;;;13.70;99.90;;;;;;5039646;28;20174;-49
2021/09/01 05:10:23;;;;;;;16.83;15.10;;;13.70;99.90;;;;;;5039615;28;20167;-53
2021/09/01 05:12:50;;;;;;;14.27;12.00;;;13.80;99.90;;;;;;5039827;28;20175;-50
2021/09/01 05:15:17;;;;;;;18.10;16.10;;;13.80;99.90;;;;;;5039647;28;20172;-50
2021/09/01 05:17:42;;;;;;;18.60;14.60;;;13.80;99.90;;;;;;5039085;28;20454;-49
2021/09/01 05:20:09;;;;;;;19.60;14.33;;;13.80;99.90;;;;;;5039772;28;20909;-52
2021/09/01 05:22:37;;;;;;;22.67;15.43;;;13.80;99.90;;;;;;5039325;28;20525;-53
2021/09/01 05:25:11;;;;;;;19.20;16.70;;;13.90;99.90;;;;;;5039992;28;20400;-55
2021/09/01 05:27:41;;;;;;;22.70;17.10;;;13.90;99.90;;;;;;5039814;28;20479;-56
2021/09/01 05:30:10;;;;;;;18.40;16.27;;;13.80;99.90;;;;;;5039433;28;20471;-57
2021/09/01 05:32:38;;;;;;;18.00;16.10;;;13.70;99.90;;;;;;5039238;28;20445;-55
2021/09/01 05:35:06;;;;;;;27.20;18.93;;;13.70;99.90;;;;;;5040205;28;20908;-48
2021/09/01 05:37:33;;;;;;;21.00;15.97;;;13.70;99.90;;;;;;5039788;28;20460;-48
2021/09/01 05:40:02;;;;;;;37.30;19.80;;;13.70;99.90;;;;;;5039932;28;20407;-50
2021/09/01 05:42:30;;;;;;;23.50;19.10;;;13.80;99.90;;;;;;5039695;28;20909;-49
2021/09/01 05:44:57;;;;;;;26.90;18.13;;;13.80;99.90;;;;;;5039659;28;20435;-57
2021/09/01 05:47:25;;;;;;;29.00;20.33;;;13.80;99.90;;;;;;5038794;28;20454;-54
2021/09/01 05:49:52;;;;;;;28.23;20.60;;;13.90;99.90;;;;;;5039622;28;20408;-56
2021/09/01 05:52:18;;;;;;;20.57;17.60;;;13.90;99.90;;;;;;5039568;28;20399;-57
2021/09/01 05:54:46;;;;;;;23.40;19.73;;;13.90;99.90;;;;;;5039761;28;20475;-49
2021/09/01 05:57:20;;;;;;;20.63;17.43;;;14.00;99.90;;;;;;5039288;28;20469;-57
2021/09/01 06:00:04;;;;;;;28.43;19.77;;;14.10;99.90;;;;;;5039573;28;20431;-57
2021/09/01 06:02:42;;;;;;;46.67;22.90;;;14.20;99.90;;;;;;5038814;28;20407;-56
2021/09/01 06:05:09;;;;;;;19.37;17.37;;;14.20;99.90;;;;;;5039334;28;20392;-51
2021/09/01 06:07:43;;;;;;;41.17;21.10;;;14.40;99.90;;;;;;5039290;28;20896;-49
2021/09/01 06:10:09;;;;;;;18.70;16.77;;;14.50;99.90;;;;;;5039489;28;20396;-50
2021/09/01 06:12:38;;;;;;;21.47;19.03;;;14.50;99.90;;;;;;5035276;28;20436;-49
2021/09/01 06:15:04;;;;;;;23.00;19.20;;;14.60;99.90;;;;;;5036344;28;20441;-52
2021/09/01 06:17:29;;;;;;;22.47;18.17;;;14.70;99.90;;;;;;5035549;28;21023;-49
2021/09/01 06:19:56;;;;;;;25.40;19.30;;;14.70;99.90;;;;;;5036204;28;20451;-50
2021/09/01 06:22:21;;;;;;;20.43;17.17;;;14.70;99.90;;;;;;5035925;28;20175;-50
2021/09/01 06:24:47;;;;;;;19.47;15.97;;;14.60;99.90;;;;;;5036156;28;20399;-48
2021/09/01 06:27:12;;;;;;;27.63;20.50;;;14.70;99.90;;;;;;5035739;28;20350;-52
2021/09/01 06:29:38;;;;;;;18.20;15.63;;;14.80;99.90;;;;;;5035808;28;20296;-51
2021/09/01 06:32:04;;;;;;;21.03;17.77;;;14.70;99.90;;;;;;5035575;28;20181;-49
2021/09/01 06:34:30;;;;;;;23.60;19.13;;;14.70;99.90;;;;;;5035607;28;20188;-50
2021/09/01 06:36:55;;;;;;;23.67;19.27;;;14.70;99.90;;;;;;5035657;28;20440;-51
2021/09/01 06:39:21;;;;;;;23.50;20.87;;;14.80;99.90;;;;;;5035841;28;20215;-51
2021/09/01 06:41:46;;;;;;;26.80;23.63;;;14.90;99.90;;;;;;5024891;28;20182;-48
2021/09/01 06:44:12;;;;;;;28.73;20.87;;;15.00;99.90;;;;;;5016029;28;20174;-49
2021/09/01 06:46:39;;;;;;;26.53;21.47;;;15.10;99.90;;;;;;5023948;28;20225;-51
2021/09/01 06:49:04;;;;;;;22.73;18.87;;;15.20;99.90;;;;;;5035231;28;20245;-49
2021/09/01 06:51:30;;;;;;;22.47;19.13;;;15.40;99.90;;;;;;5035172;28;20421;-50
2021/09/01 06:53:56;;;;;;;21.20;19.00;;;15.50;99.90;;;;;;5034947;28;20174;-49
2021/09/01 06:56:21;;;;;;;23.63;20.03;;;15.50;99.90;;;;;;5034763;28;20199;-53
2021/09/01 06:58:47;;;;;;;23.53;20.90;;;15.60;99.90;;;;;;5034919;28;20200;-49
2021/09/01 07:01:13;;;;;;;24.90;22.23;;;15.50;99.90;;;;;;5034836;28;20532;-51
2021/09/01 07:03:38;;;;;;;25.30;22.17;;;15.60;99.90;;;;;;5034448;28;20176;-51
2021/09/01 07:06:04;;;;;;;28.20;24.17;;;15.70;99.90;;;;;;5035200;28;20188;-57
2021/09/01 07:08:29;;;;;;;21.00;18.83;;;15.90;99.90;;;;;;5035090;28;20198;-57
2021/09/01 07:10:55;;;;;;;24.00;21.20;;;15.90;99.90;;;;;;5035037;28;20626;-57
2021/09/01 07:13:21;;;;;;;25.43;22.20;;;16.10;99.90;;;;;;5035103;28;20208;-56
2021/09/01 07:15:47;;;;;;;24.03;21.27;;;16.10;99.90;;;;;;5034698;28;20183;-53
2021/09/01 07:18:13;;;;;;;24.30;21.63;;;16.10;99.90;;;;;;5034340;28;20344;-56
2021/09/01 07:20:40;;;;;;;22.83;20.20;;;16.00;99.90;;;;;;5035279;28;20172;-57
2021/09/01 07:23:06;;;;;;;23.13;20.67;;;16.10;99.90;;;;;;5034117;28;20906;-57
2021/09/01 07:25:33;;;;;;;23.87;21.23;;;16.20;99.90;;;;;;5034634;28;20503;-52
2021/09/01 07:28:00;;;;;;;21.37;19.17;;;16.20;99.90;;;;;;5034955;28;20786;-56
2021/09/01 07:30:25;;;;;;;21.93;18.53;;;15.90;99.90;;;;;;5034755;28;20420;-56
2021/09/01 07:32:51;;;;;;;24.73;18.83;;;15.90;99.90;;;;;;5032481;28;20419;-55
2021/09/01 07:35:17;;;;;;;22.57;19.50;;;15.90;99.90;;;;;;5034249;28;20294;-50
2021/09/01 07:37:49;;;;;;;27.37;23.90;;;15.60;99.90;;;;;;5034031;28;20266;-49
2021/09/01 07:40:17;;;;;;;22.87;20.27;;;15.80;99.90;;;;;;5034345;28;20172;-49
2021/09/01 07:42:43;;;;;;;28.90;24.27;;;16.10;99.90;;;;;;5033184;28;20429;-50
2021/09/01 07:45:11;;;;;;;25.57;22.80;;;16.30;99.90;;;;;;5034659;28;20438;-49
2021/09/01 07:47:37;;;;;;;25.50;22.60;;;16.40;99.90;;;;;;5035676;28;20444;-51
2021/09/01 07:50:04;;;;;;;29.40;22.80;;;16.50;99.90;;;;;;5034302;28;20458;-50
2021/09/01 07:52:29;;;;;;;30.60;22.90;;;16.50;99.90;;;;;;5034018;28;20410;-52
2021/09/01 07:54:55;;;;;;;30.17;25.67;;;16.20;99.90;;;;;;5034216;28;20408;-51
2021/09/01 07:57:21;;;;;;;31.73;28.37;;;16.10;99.90;;;;;;5034365;28;20203;-51
2021/09/01 07:59:46;;;;;;;27.00;23.40;;;16.10;99.90;;;;;;5034279;28;20406;-51
2021/09/01 08:02:12;;;;;;;209.90;152.20;;;16.20;99.90;;;;;;5034083;28;20166;-49
2021/09/01 08:04:37;;;;;;;147.33;111.63;;;16.20;99.90;;;;;;5033753;28;20196;-49
2021/09/01 08:07:03;;;;;;;26.33;21.83;;;16.20;99.90;;;;;;5034069;28;20566;-50
2021/09/01 08:09:29;;;;;;;22.33;19.73;;;16.20;99.90;;;;;;5034055;28;20174;-52
2021/09/01 08:11:54;;;;;;;49.33;42.03;;;16.30;99.90;;;;;;5033855;28;20223;-49
2021/09/01 08:14:20;;;;;;;29.87;26.70;;;16.40;99.90;;;;;;5033884;28;20164;-50
2021/09/01 08:16:45;;;;;;;29.67;26.60;;;16.50;99.90;;;;;;5034071;28;20252;-52
2021/09/01 08:19:11;;;;;;;47.77;43.07;;;16.60;99.90;;;;;;5033610;28;20171;-48
2021/09/01 08:21:37;;;;;;;24.13;21.73;;;16.50;99.90;;;;;;5033842;28;20249;-51
2021/09/01 08:24:02;;;;;;;22.90;20.43;;;16.50;99.90;;;;;;5033925;28;20168;-51
2021/09/01 08:26:28;;;;;;;21.80;18.00;;;16.60;99.90;;;;;;5033667;28;20198;-49
2021/09/01 08:28:53;;;;;;;18.63;16.63;;;16.60;99.90;;;;;;5033985;28;20178;-49
2021/09/01 08:31:19;;;;;;;23.30;19.50;;;16.70;99.90;;;;;;4996816;28;20181;-57
2021/09/01 08:33:45;;;;;;;16.93;15.23;;;16.80;99.90;;;;;;5013655;28;20545;-55
2021/09/01 08:36:10;;;;;;;19.20;16.67;;;16.80;99.90;;;;;;5013637;28;20249;-56
2021/09/01 08:38:36;;;;;;;21.33;17.10;;;17.00;99.90;;;;;;5013963;28;20680;-56
2021/09/01 08:41:02;;;;;;;17.43;15.60;;;17.20;99.90;;;;;;5013960;28;20199;-56
2021/09/01 08:43:28;;;;;;;18.80;15.07;;;17.30;99.90;;;;;;5031557;28;20179;-56
2021/09/01 08:45:53;;;;;;;16.80;15.10;;;17.50;99.90;;;;;;5032980;28;20421;-56
2021/09/01 08:48:21;;;;;;;16.37;14.60;;;17.40;99.90;;;;;;5033513;28;20605;-56
2021/09/01 08:50:47;;;;;;;18.00;16.20;;;17.20;99.90;;;;;;5033381;28;20182;-54
2021/09/01 08:53:12;;;;;;;16.90;15.30;;;17.30;99.90;;;;;;5033159;28;20414;-53
2021/09/01 08:55:38;;;;;;;17.30;14.10;;;17.40;99.90;;;;;;5033267;28;20250;-49
2021/09/01 08:58:04;;;;;;;14.83;13.33;;;17.50;99.90;;;;;;5032753;28;20199;-49
2021/09/01 09:00:30;;;;;;;17.50;13.90;;;17.60;99.90;;;;;;5015221;28;20485;-51
2021/09/01 09:02:57;;;;;;;15.70;14.10;;;17.90;99.90;;;;;;5015201;28;20538;-49
2021/09/01 09:05:50;;;;;;;16.90;15.20;;;17.90;99.90;;;;;;5032626;28;20170;-51
2021/09/01 09:08:16;;;;;;;17.30;14.60;;;18.00;99.90;;;;;;5030501;28;20468;-51
2021/09/01 09:10:47;;;;;;;18.03;14.77;;;18.10;99.90;;;;;;5015040;28;20440;-51
2021/09/01 09:13:28;;;;;;;15.33;13.93;;;17.90;99.90;;;;;;5032581;28;20189;-53
2021/09/01 09:16:09;;;;;;;15.33;13.83;;;18.00;99.90;;;;;;5032953;28;20926;-50
2021/09/01 09:18:36;;;;;;;15.43;13.40;;;18.10;99.90;;;;;;5032670;28;20492;-49
2021/09/01 09:21:20;;;;;;;15.57;13.77;;;18.10;99.90;;;;;;5033086;28;20438;-48
2021/09/01 09:23:48;;;;;;;17.83;15.93;;;18.20;99.90;;;;;;5032839;28;21012;-51
2021/09/01 09:26:31;;;;;;;16.93;15.17;;;18.20;99.90;;;;;;5032807;28;20422;-55
2021/09/01 09:29:09;;;;;;;15.90;14.20;;;18.40;99.90;;;;;;5032863;28;20893;-57
2021/09/01 09:31:35;;;;;;;15.57;13.97;;;18.50;99.90;;;;;;5033032;28;20428;-57
2021/09/01 09:34:12;;;;;;;16.63;14.93;;;18.60;99.90;;;;;;5032776;28;20773;-50
2021/09/01 09:36:38;;;;;;;12.93;11.63;;;18.50;99.90;;;;;;5033284;28;20426;-58
2021/09/01 09:39:05;;;;;;;12.23;11.03;;;18.60;99.90;;;;;;5032855;28;20442;-56
2021/09/01 09:41:31;;;;;;;13.53;12.23;;;18.90;99.90;;;;;;5032634;28;20490;-57
2021/09/01 09:44:03;;;;;;;13.57;12.20;;;19.10;99.90;;;;;;5032387;28;20513;-57
2021/09/01 09:46:30;;;;;;;12.60;11.23;;;19.20;99.90;;;;;;5034058;28;20825;-57
2021/09/01 09:49:09;;;;;;;11.87;10.83;;;19.20;99.90;;;;;;5037333;28;20414;-57
2021/09/01 09:51:42;;;;;;;12.67;11.47;;;19.40;99.90;;;;;;5036838;28;20413;-55
2021/09/01 09:54:23;;;;;;;12.07;10.80;;;19.40;99.90;;;;;;5036526;28;20410;-50
2021/09/01 09:56:50;;;;;;;13.77;11.20;;;19.60;99.90;;;;;;5036003;28;20516;-52
2021/09/01 09:59:21;;;;;;;10.93;9.90;;;19.80;99.90;;;;;;5036365;28;20420;-50
2021/09/01 10:01:48;;;;;;;11.20;10.20;;;19.90;99.90;;;;;;5036133;28;20405;-50
2021/09/01 10:04:14;;;;;;;11.80;10.60;;;19.90;99.90;;;;;;5036051;28;20406;-49
2021/09/01 10:06:41;;;;;;;12.07;10.90;;;20.00;99.90;;;;;;5036442;28;20425;-49
2021/09/01 10:09:08;;;;;;;12.50;10.07;;;20.10;99.90;;;;;;5036364;28;20501;-49
2021/09/01 10:11:37;;;;;;;11.03;9.93;;;20.30;99.90;;;;;;5036450;28;20410;-50
2021/09/01 10:14:03;;;;;;;10.60;9.60;;;20.30;99.90;;;;;;5018461;28;20410;-51
2021/09/01 10:16:32;;;;;;;9.53;8.60;;;20.40;99.90;;;;;;5036107;28;20426;-49
2021/09/01 10:19:09;;;;;;;8.53;7.70;;;20.50;99.90;;;;;;5036002;28;20445;-49
2021/09/01 10:21:38;;;;;;;7.20;6.60;;;20.50;99.90;;;;;;5036315;28;20469;-57
2021/09/01 10:24:27;;;;;;;8.57;7.30;;;20.50;99.90;;;;;;5034940;28;20971;-57
2021/09/01 10:26:59;;;;;;;7.83;7.13;;;20.40;99.90;;;;;;5034570;28;20444;-54
2021/09/01 10:29:43;;;;;;;7.43;6.43;;;20.60;99.90;;;;;;5035763;28;20770;-57
2021/09/01 10:32:19;;;;;;;8.63;7.80;;;20.90;99.90;;;;;;5035775;28;20426;-54
2021/09/01 10:34:45;;;;;;;7.50;6.70;;;21.10;99.90;;;;;;5035480;28;20390;-49
2021/09/01 10:37:40;;;;;;;7.10;6.40;;;21.10;99.90;;;;;;5035735;28;20516;-51
2021/09/01 10:40:21;;;;;;;7.40;6.67;;;21.00;99.90;;;;;;5036139;28;20768;-48
2021/09/01 10:42:51;;;;;;;10.03;6.90;;;21.00;99.90;;;;;;5032589;28;20438;-49
2021/09/01 10:45:23;;;;;;;6.87;6.23;;;20.90;99.90;;;;;;5035997;28;20414;-49
2021/09/01 10:47:51;;;;;;;7.93;6.37;;;21.20;99.90;;;;;;5035407;28;20449;-50
2021/09/01 10:50:29;;;;;;;7.17;6.57;;;22.00;99.90;;;;;;5036719;28;20402;-50
2021/09/01 10:52:56;;;;;;;7.00;6.20;;;23.00;99.90;;;;;;5035901;28;20379;-50
2021/09/01 10:55:21;;;;;;;7.40;6.70;;;24.60;99.90;;;;;;5035669;28;20413;-58
2021/09/01 10:58:24;;;;;;;6.93;6.23;;;25.50;98.10;;;;;;5035341;28;20446;-56
2021/09/01 11:01:06;;;;;;;6.57;6.07;;;25.60;97.80;;;;;;5035950;28;20177;-56
2021/09/01 11:03:54;;;;;;;7.33;6.00;;;25.80;98.50;;;;;;5035716;28;20393;-50
2021/09/01 11:06:25;;;;;;;5.67;5.13;;;26.00;97.00;;;;;;5034862;28;20437;-49
2021/09/01 11:09:14;;;;;;;6.70;6.10;;;24.40;98.30;;;;;;5035278;28;20436;-49
2021/09/01 11:11:57;;;;;;;6.90;5.93;;;24.30;98.40;;;;;;5034923;28;20785;-49
2021/09/01 11:14:31;;;;;;;7.03;5.40;;;23.40;99.20;;;;;;5035439;28;20386;-49
2021/09/01 11:16:59;;;;;;;6.37;5.37;;;24.20;98.30;;;;;;5034846;28;20483;-50
2021/09/01 11:19:24;;;;;;;9.30;6.27;;;24.80;97.70;;;;;;5033641;28;20418;-52
2021/09/01 11:21:50;;;;;;;6.93;6.33;;;25.30;97.00;;;;;;5034682;28;20406;-53
2021/09/01 11:24:18;;;;;;;6.47;5.87;;;24.30;98.40;;;;;;5034856;28;20174;-52
2021/09/01 11:26:45;;;;;;;7.10;6.10;;;23.80;99.50;;;;;;5034646;28;20191;-49
2021/09/01 11:29:11;;;;;;;6.50;5.97;;;25.00;98.60;;;;;;5034543;28;20899;-50
2021/09/01 11:31:45;;;;;;;7.20;5.90;;;27.20;96.50;;;;;;5034808;28;20402;-51
2021/09/01 11:34:13;;;;;;;5.67;5.10;;;26.80;95.50;;;;;;5034674;28;20386;-53
2021/09/01 11:36:40;;;;;;;6.50;5.03;;;28.50;94.10;;;;;;5034438;28;20457;-50
2021/09/01 11:39:07;;;;;;;5.63;5.03;;;29.60;91.40;;;;;;5016500;28;20828;-50
2021/09/01 11:41:33;;;;;;;6.00;5.50;;;31.10;88.10;;;;;;5034395;28;20403;-49
2021/09/01 11:44:02;;;;;;;8.83;6.50;;;31.10;83.80;;;;;;5034070;28;20398;-49
2021/09/01 11:46:36;;;;;;;5.27;4.77;;;28.40;87.30;;;;;;5033819;28;20307;-51
2021/09/01 11:49:04;;;;;;;5.27;4.83;;;28.20;90.60;;;;;;5034013;28;20409;-49
2021/09/01 11:51:29;;;;;;;4.90;4.50;;;30.20;87.10;;;;;;5033961;28;20406;-50
2021/09/01 11:53:57;;;;;;;6.90;4.30;;;30.50;81.80;;;;;;5034092;28;20536;-49
2021/09/01 11:56:24;;;;;;;5.03;4.53;;;27.80;83.80;;;;;;5033986;28;20187;-50
2021/09/01 11:59:10;;;;;;;5.87;4.97;;;25.80;90.00;;;;;;5033466;28;20950;-48
2021/09/01 12:01:49;;;;;;;4.80;4.30;;;24.10;91.90;;;;;;5034383;28;20383;-51
2021/09/01 12:04:16;;;;;;;5.33;4.83;;;24.00;92.70;;;;;;5034313;28;20826;-50
2021/09/01 12:06:44;;;;;;;4.83;4.33;;;25.70;91.60;;;;;;5033919;28;21060;-58
2021/09/01 12:09:14;;;;;;;5.80;5.27;;;27.40;88.80;;;;;;5033127;28;20489;-57
2021/09/01 12:11:47;;;;;;;5.07;4.50;;;28.50;88.20;;;;;;5033780;28;20410;-58
2021/09/01 12:14:14;;;;;;;4.60;4.20;;;29.60;83.50;;;;;;5034013;28;20387;-51
2021/09/01 12:16:39;;;;;;;5.03;4.60;;;29.30;83.10;;;;;;5033471;28;20422;-53
2021/09/01 12:19:13;;;;;;;5.97;5.07;;;29.10;83.90;;;;;;5033136;28;20457;-52
2021/09/01 12:22:04;;;;;;;5.87;5.30;;;29.70;80.60;;;;;;5033722;28;20166;-49
2021/09/01 12:24:35;;;;;;;5.77;4.67;;;29.40;80.70;;;;;;5033283;28;20464;-51
2021/09/01 12:27:09;;;;;;;6.20;5.50;;;28.60;83.40;;;;;;5034032;28;20426;-58
2021/09/01 12:29:42;;;;;;;5.30;4.80;;;28.00;84.30;;;;;;5033799;28;20398;-50
2021/09/01 12:32:14;;;;;;;5.50;5.03;;;26.60;89.10;;;;;;5034457;28;20393;-53
2021/09/01 12:34:43;;;;;;;5.50;5.00;;;25.10;91.40;;;;;;5033536;28;20391;-55